createdAt,value
2022-12-25T00:00:51.159Z,11.90
2022-12-25T00:03:17.897Z,10.23
2022-12-25T00:05:44.424Z,11.10
2022-12-25T00:08:11.256Z,15.68
2022-12-25T00:10:44.729Z,15.13
2022-12-25T00:13:11.987Z,12.38
2022-12-25T00:15:41.035Z,15.23
2022-12-25T00:18:07.615Z,18.20
2022-12-25T00:20:34.187Z,12.43
2022-12-25T00:23:00.738Z,17.80
2022-12-25T00:25:27.322Z,15.60
2022-12-25T00:27:53.793Z,13.40
2022-12-25T00:30:20.331Z,12.82
2022-12-25T00:32:46.959Z,15.93
2022-12-25T00:35:13.506Z,16.13
2022-12-25T00:37:40.074Z,15.73
2022-12-25T00:40:07.458Z,12.75
2022-12-25T00:42:34.000Z,14.93
2022-12-25T00:45:01.507Z,13.55
2022-12-25T00:47:29.298Z,20.40
2022-12-25T00:49:55.823Z,14.32
2022-12-25T00:52:22.571Z,14.18
2022-12-25T00:54:49.149Z,14.15
2022-12-25T00:57:15.828Z,12.80
2022-12-25T00:59:42.316Z,16.37
2022-12-25T01:02:24.112Z,16.88
2022-12-25T01:04:53.109Z,11.90
2022-12-25T01:07:20.719Z,16.50
2022-12-25T01:10:09.993Z,11.38
2022-12-25T01:12:39.698Z,16.03
2022-12-25T01:15:08.029Z,11.63
2022-12-25T01:17:35.038Z,10.13
2022-12-25T01:20:02.013Z,11.63
2022-12-25T01:22:28.709Z,16.60
2022-12-25T01:24:55.233Z,12.37
2022-12-25T01:27:21.964Z,10.95
2022-12-25T01:29:48.493Z,11.40
2022-12-25T01:32:15.170Z,10.88
2022-12-25T01:34:41.716Z,9.07
2022-12-25T01:37:08.311Z,11.53
2022-12-25T01:39:34.983Z,9.48
2022-12-25T01:42:01.571Z,11.48
2022-12-25T01:44:35.328Z,15.27
2022-12-25T01:47:02.916Z,12.95
2022-12-25T01:49:31.523Z,9.73
2022-12-25T01:52:03.125Z,11.75
2022-12-25T01:54:35.970Z,12.82
2022-12-25T01:57:06.713Z,9.23
2022-12-25T01:59:33.392Z,9.05
2022-12-25T02:02:00.964Z,11.83
2022-12-25T02:04:40.185Z,12.20
2022-12-25T02:07:10.243Z,12.88
2022-12-25T02:09:37.830Z,8.95
2022-12-25T02:12:05.719Z,11.10
2022-12-25T02:14:34.954Z,11.30
2022-12-25T02:17:10.459Z,9.07
2022-12-25T02:20:03.739Z,12.50
2022-12-25T02:22:46.515Z,8.65
2022-12-25T02:25:26.225Z,9.68
2022-12-25T02:28:06.473Z,9.23
2022-12-25T02:30:39.035Z,9.07
2022-12-25T02:33:54.344Z,7.32
2022-12-25T02:36:26.770Z,23.63
2022-12-25T02:39:17.476Z,7.63
2022-12-25T02:41:48.000Z,7.17
2022-12-25T02:44:38.049Z,10.18
2022-12-25T02:47:25.570Z,7.43
2022-12-25T02:50:12.657Z,10.25
2022-12-25T02:53:00.303Z,9.18
2022-12-25T02:55:51.399Z,9.73
2022-12-25T02:58:40.481Z,5.55
2022-12-25T03:01:32.267Z,10.95
2022-12-25T03:04:20.404Z,6.57
2022-12-25T03:07:08.242Z,6.70
2022-12-25T03:09:59.825Z,8.37
2022-12-25T03:12:34.108Z,8.52
2022-12-25T03:15:19.124Z,11.77
2022-12-25T03:17:46.797Z,14.07
2022-12-25T03:20:31.830Z,11.30
2022-12-25T03:23:17.044Z,11.07
2022-12-25T03:26:02.863Z,16.73
2022-12-25T03:28:30.363Z,14.52
2022-12-25T03:31:12.943Z,12.13
2022-12-25T03:34:26.073Z,14.25
2022-12-25T03:37:12.173Z,12.00
2022-12-25T03:40:12.024Z,12.18
2022-12-25T03:43:03.159Z,8.93
2022-12-25T03:46:00.137Z,8.98
2022-12-25T03:48:50.116Z,13.93
2022-12-25T03:51:39.573Z,10.63
2022-12-25T03:54:28.334Z,9.43
2022-12-25T03:57:14.356Z,13.02
2022-12-25T03:59:59.720Z,10.45
2022-12-25T04:02:44.996Z,11.80
2022-12-25T04:05:30.310Z,13.63
2022-12-25T04:08:15.387Z,15.68
2022-12-25T04:11:00.498Z,18.13
2022-12-25T04:13:45.462Z,11.95
2022-12-25T04:16:30.206Z,8.70
2022-12-25T04:19:15.309Z,9.90
2022-12-25T04:22:14.555Z,8.95
2022-12-25T04:24:59.742Z,14.32
2022-12-25T04:27:44.798Z,11.98
2022-12-25T04:30:29.848Z,10.35
2022-12-25T04:33:17.170Z,9.47
2022-12-25T04:36:06.944Z,8.15
2022-12-25T04:38:33.892Z,6.70
2022-12-25T04:41:01.385Z,7.63
2022-12-25T04:43:28.237Z,7.60
2022-12-25T04:45:58.644Z,8.50
2022-12-25T04:48:26.531Z,9.18
2022-12-25T04:50:53.733Z,13.63
2022-12-25T04:53:20.861Z,10.43
2022-12-25T04:55:47.376Z,13.18
2022-12-25T04:58:14.162Z,8.97
2022-12-25T05:00:40.995Z,8.68
2022-12-25T05:03:07.645Z,12.85
2022-12-25T05:05:34.226Z,11.52
2022-12-25T05:08:00.842Z,7.30
2022-12-25T05:10:27.467Z,20.27
2022-12-25T05:12:53.943Z,8.02
2022-12-25T05:15:20.516Z,6.68
2022-12-25T05:17:46.954Z,11.68
2022-12-25T05:20:13.514Z,7.43
2022-12-25T05:22:42.102Z,7.87
2022-12-25T05:25:08.748Z,4.65
2022-12-25T05:27:35.273Z,6.38
2022-12-25T05:30:01.798Z,7.90
2022-12-25T05:32:28.327Z,8.52
2022-12-25T05:34:54.946Z,9.00
2022-12-25T05:37:21.454Z,21.15
2022-12-25T05:39:48.175Z,7.95
2022-12-25T05:42:14.726Z,6.85
2022-12-25T05:44:41.254Z,6.88
2022-12-25T05:47:07.885Z,5.53
2022-12-25T05:49:34.554Z,4.40
2022-12-25T05:52:01.070Z,7.10
2022-12-25T05:54:27.677Z,4.72
2022-12-25T05:56:54.216Z,6.18
2022-12-25T05:59:20.794Z,9.93
2022-12-25T06:01:48.015Z,6.95
2022-12-25T06:04:14.608Z,5.07
2022-12-25T06:06:41.473Z,11.27
2022-12-25T06:09:08.754Z,5.60
2022-12-25T06:11:35.299Z,5.87
2022-12-25T06:14:01.859Z,6.72
2022-12-25T06:16:34.049Z,6.47
2022-12-25T06:19:04.076Z,5.80
2022-12-25T06:21:30.698Z,9.07
2022-12-25T06:23:57.331Z,7.73
2022-12-25T06:26:23.863Z,5.72
2022-12-25T06:28:50.332Z,5.68
2022-12-25T06:31:20.163Z,7.97
2022-12-25T06:33:46.968Z,7.65
2022-12-25T06:36:17.196Z,7.27
2022-12-25T06:38:44.160Z,8.40
2022-12-25T06:41:15.868Z,5.45
2022-12-25T06:43:42.626Z,7.60
2022-12-25T06:46:12.481Z,5.60
2022-12-25T06:48:40.614Z,6.40
2022-12-25T06:51:07.783Z,7.05
2022-12-25T06:53:40.573Z,5.53
2022-12-25T06:56:10.066Z,6.95
2022-12-25T06:58:36.663Z,7.80
2022-12-25T07:05:08.682Z,9.13
2022-12-25T07:07:35.265Z,6.10
2022-12-25T07:10:01.865Z,9.27
2022-12-25T07:12:28.362Z,5.07
2022-12-25T07:14:55.884Z,6.93
2022-12-25T07:17:24.464Z,7.47
2022-12-25T07:19:51.495Z,5.95
2022-12-25T07:22:19.549Z,6.72
2022-12-25T07:24:46.275Z,6.43
2022-12-25T07:27:13.210Z,6.47
2022-12-25T07:29:39.768Z,6.10
2022-12-25T07:32:06.661Z,10.65
2022-12-25T07:34:34.337Z,6.30
2022-12-25T07:37:00.921Z,5.65
2022-12-25T07:39:28.315Z,4.67
2022-12-25T07:41:54.877Z,6.22
2022-12-25T07:44:21.437Z,6.40
2022-12-25T07:46:48.255Z,5.70
2022-12-25T07:49:14.875Z,5.00
2022-12-25T07:51:41.476Z,7.70
2022-12-25T07:54:08.089Z,5.93
2022-12-25T07:56:34.725Z,4.63
2022-12-25T07:59:01.317Z,6.25
2022-12-25T08:01:29.880Z,10.32
2022-12-25T08:03:59.827Z,7.33
2022-12-25T08:06:31.433Z,5.93
2022-12-25T08:09:04.351Z,6.90
2022-12-25T08:11:30.963Z,6.28
2022-12-25T08:13:57.567Z,4.47
2022-12-25T08:16:24.504Z,3.07
2022-12-25T08:18:51.389Z,5.38
2022-12-25T08:21:18.044Z,7.85
2022-12-25T08:23:46.459Z,6.70
2022-12-25T08:26:22.150Z,7.25
2022-12-25T08:28:49.339Z,5.13
2022-12-25T08:31:18.794Z,6.07
2022-12-25T08:33:48.680Z,4.70
2022-12-25T08:36:15.531Z,5.85
2022-12-25T08:38:42.985Z,5.78
2022-12-25T08:41:10.888Z,4.43
2022-12-25T08:43:37.612Z,6.53
2022-12-25T08:46:04.649Z,4.05
2022-12-25T08:48:31.348Z,5.07
2022-12-25T08:50:58.800Z,7.90
2022-12-25T08:53:26.872Z,5.40
2022-12-25T08:56:02.379Z,5.13
2022-12-25T08:58:28.901Z,4.57
2022-12-25T09:00:55.893Z,3.92
2022-12-25T09:03:23.643Z,7.10
2022-12-25T09:05:51.280Z,4.03
2022-12-25T09:08:17.880Z,4.20
2022-12-25T09:10:44.515Z,6.22
2022-12-25T09:13:11.478Z,7.35
2022-12-25T09:15:40.356Z,5.30
2022-12-25T09:18:07.058Z,6.80
2022-12-25T09:20:33.721Z,3.83
2022-12-25T09:23:00.250Z,5.25
2022-12-25T09:25:26.803Z,4.40
2022-12-25T09:27:53.428Z,4.85
2022-12-25T09:30:20.059Z,4.13
2022-12-25T09:32:46.765Z,5.90
2022-12-25T09:35:14.332Z,7.78
2022-12-25T09:37:40.897Z,7.47
2022-12-25T09:40:08.260Z,6.43
2022-12-25T09:42:35.009Z,4.43
2022-12-25T09:45:06.096Z,3.28
2022-12-25T09:47:38.356Z,6.50
2022-12-25T09:50:12.241Z,5.93
2022-12-25T09:52:54.739Z,4.05
2022-12-25T09:55:25.351Z,5.27
2022-12-25T09:57:55.619Z,5.97
2022-12-25T10:00:25.777Z,7.95
2022-12-25T10:02:53.514Z,6.22
2022-12-25T10:05:47.540Z,4.05
2022-12-25T10:08:21.459Z,4.00
2022-12-25T10:10:51.660Z,4.90
2022-12-25T10:13:34.108Z,6.05
2022-12-25T10:16:07.731Z,6.82
2022-12-25T10:18:45.565Z,5.28
2022-12-25T10:21:15.905Z,5.37
2022-12-25T10:23:48.043Z,5.35
2022-12-25T10:26:18.405Z,5.85
2022-12-25T10:28:48.953Z,4.63
2022-12-25T10:31:22.106Z,6.18
2022-12-25T10:33:50.962Z,6.03
2022-12-25T10:36:20.558Z,7.60
2022-12-25T10:38:47.900Z,5.78
2022-12-25T10:41:37.088Z,5.97
2022-12-25T10:44:13.571Z,5.88
2022-12-25T10:46:41.157Z,3.17
2022-12-25T10:49:14.880Z,4.28
2022-12-25T10:51:41.396Z,6.25
2022-12-25T10:54:29.732Z,5.63
2022-12-25T10:57:00.340Z,7.53
2022-12-25T10:59:30.086Z,6.13
2022-12-25T11:02:04.190Z,8.02
2022-12-25T11:04:34.969Z,7.60
2022-12-25T11:07:06.879Z,7.50
2022-12-25T11:09:35.559Z,5.90
2022-12-25T11:12:02.329Z,5.67
2022-12-25T11:14:29.262Z,4.43
2022-12-25T11:16:55.945Z,7.28
2022-12-25T11:19:28.714Z,7.32
2022-12-25T11:21:57.922Z,7.38
2022-12-25T11:24:29.256Z,6.70
2022-12-25T11:26:59.221Z,8.60
2022-12-25T11:29:49.263Z,7.35
2022-12-25T11:32:30.721Z,8.55
2022-12-25T11:37:59.131Z,8.33
2022-12-25T11:40:41.791Z,7.35
2022-12-25T11:43:15.673Z,8.95
2022-12-25T11:45:49.008Z,9.80
2022-12-25T11:48:22.066Z,8.60
2022-12-25T11:50:54.028Z,7.00
2022-12-25T11:53:29.547Z,7.38
2022-12-25T11:56:01.453Z,9.50
2022-12-25T11:58:33.523Z,7.63
2022-12-25T12:01:05.045Z,36.78
2022-12-25T12:03:37.689Z,14.33
2022-12-25T12:06:13.784Z,8.77
2022-12-25T12:08:41.241Z,7.18
2022-12-25T12:11:18.331Z,8.15
2022-12-25T12:14:23.097Z,6.53
2022-12-25T12:16:49.805Z,7.17
2022-12-25T12:19:31.790Z,6.30
2022-12-25T12:22:02.163Z,9.70
2022-12-25T12:24:38.316Z,6.30
2022-12-25T12:27:17.926Z,8.32
2022-12-25T12:29:48.372Z,7.53
2022-12-25T12:32:44.260Z,7.13
2022-12-25T12:35:15.095Z,6.95
2022-12-25T12:37:42.388Z,7.68
2022-12-25T12:40:24.996Z,5.80
2022-12-25T12:42:52.427Z,8.57
2022-12-25T12:45:26.070Z,8.30
2022-12-25T12:47:53.320Z,6.95
2022-12-25T12:50:35.138Z,7.72
2022-12-25T12:53:18.618Z,6.95
2022-12-25T12:55:45.276Z,6.77
2022-12-25T12:58:27.801Z,5.85
2022-12-25T13:01:08.865Z,5.68
2022-12-25T13:03:39.622Z,8.65
2022-12-25T13:06:18.089Z,8.10
2022-12-25T13:09:14.203Z,8.13
2022-12-25T13:11:43.422Z,5.78
2022-12-25T13:14:16.713Z,7.72
2022-12-25T13:16:45.947Z,8.05
2022-12-25T13:19:18.847Z,9.02
2022-12-25T13:21:52.702Z,6.80
2022-12-25T13:24:22.704Z,7.35
2022-12-25T13:26:49.816Z,8.88
2022-12-25T13:29:32.649Z,8.20
2022-12-25T13:32:02.501Z,9.65
2022-12-25T13:34:31.780Z,11.13
2022-12-25T13:37:01.733Z,8.93
2022-12-25T13:39:28.673Z,8.70
2022-12-25T13:42:10.090Z,7.22
2022-12-25T13:44:39.766Z,7.80
2022-12-25T13:47:17.063Z,7.27
2022-12-25T13:49:44.827Z,10.02
2022-12-25T13:52:15.251Z,8.32
2022-12-25T13:55:03.990Z,7.22
2022-12-25T13:57:35.431Z,6.50
2022-12-25T14:00:03.321Z,10.97
2022-12-25T14:02:34.456Z,8.52
2022-12-25T14:05:01.122Z,7.00
2022-12-25T14:07:27.808Z,6.20
2022-12-25T14:09:59.855Z,8.52
2022-12-25T14:12:29.174Z,12.57
2022-12-25T14:14:59.184Z,7.43
2022-12-25T14:17:26.438Z,9.27
2022-12-25T14:20:05.668Z,6.35
2022-12-25T14:22:35.967Z,7.43
2022-12-25T14:25:02.668Z,7.30
2022-12-25T14:27:30.805Z,7.43
2022-12-25T14:30:02.370Z,7.68
2022-12-25T14:32:39.109Z,7.03
2022-12-25T14:35:06.126Z,8.05
2022-12-25T14:37:34.038Z,7.27
2022-12-25T14:40:03.109Z,9.68
2022-12-25T14:42:32.735Z,10.00
2022-12-25T14:45:03.408Z,7.35
2022-12-25T14:47:31.638Z,6.57
2022-12-25T14:49:59.763Z,7.63
2022-12-25T14:52:31.122Z,10.40
2022-12-25T14:55:04.932Z,7.25
2022-12-25T14:57:33.960Z,6.82
2022-12-25T15:00:06.151Z,8.68
2022-12-25T15:02:46.529Z,7.47
2022-12-25T15:05:33.560Z,9.48
2022-12-25T15:08:18.429Z,15.40
2022-12-25T15:11:02.576Z,9.70
2022-12-25T15:13:30.865Z,6.68
2022-12-25T15:16:06.583Z,6.97
2022-12-25T15:18:39.319Z,10.43
2022-12-25T15:21:06.892Z,7.68
2022-12-25T15:23:33.481Z,7.47
2022-12-25T15:28:41.969Z,7.63
2022-12-25T15:31:22.109Z,8.38
2022-12-25T15:36:26.123Z,7.63
2022-12-25T15:38:53.978Z,8.18
2022-12-25T15:41:46.248Z,10.87
2022-12-25T15:44:14.564Z,9.18
2022-12-25T15:46:42.028Z,8.75
2022-12-25T15:51:51.503Z,9.75
2022-12-25T15:54:18.062Z,9.47
2022-12-25T15:56:49.825Z,11.90
2022-12-25T15:59:18.132Z,9.13
2022-12-25T16:01:54.281Z,9.18
2022-12-25T16:04:21.830Z,11.35
2022-12-25T16:06:48.853Z,14.53
2022-12-25T16:09:16.945Z,24.95
2022-12-25T16:11:43.918Z,17.85
2022-12-25T16:14:10.563Z,14.15
2022-12-25T16:16:38.064Z,12.07
2022-12-25T16:19:04.878Z,11.90
2022-12-25T16:21:43.518Z,11.05
2022-12-25T16:24:17.373Z,12.50
2022-12-25T16:26:43.955Z,10.70
2022-12-25T16:29:10.937Z,8.65
2022-12-25T16:31:39.134Z,11.00
2022-12-25T16:34:07.543Z,10.85
2022-12-25T16:36:34.888Z,7.75
2022-12-25T16:39:02.518Z,8.32
2022-12-25T16:41:29.256Z,10.50
2022-12-25T16:43:55.899Z,8.50
2022-12-25T16:46:23.054Z,8.48
2022-12-25T16:48:49.820Z,10.30
2022-12-25T16:51:19.800Z,9.90
2022-12-25T16:53:47.239Z,8.70
2022-12-25T16:56:17.547Z,12.27
2022-12-25T16:58:46.796Z,12.90
2022-12-25T17:01:16.154Z,10.95
2022-12-25T17:03:43.535Z,11.75
2022-12-25T17:06:14.403Z,12.90
2022-12-25T17:08:41.297Z,13.93
2022-12-25T17:11:08.011Z,14.32
2022-12-25T17:13:34.778Z,13.15
2022-12-25T17:16:10.827Z,10.70
2022-12-25T17:18:37.411Z,16.38
2022-12-25T17:21:04.241Z,12.40
2022-12-25T17:23:30.909Z,14.45
2022-12-25T17:26:01.351Z,11.75
2022-12-25T17:28:27.977Z,14.02
2022-12-25T17:30:54.883Z,15.35
2022-12-25T17:33:21.993Z,15.10
2022-12-25T17:35:48.539Z,13.10
2022-12-25T17:38:15.182Z,14.55
2022-12-25T17:40:41.800Z,10.70
2022-12-25T17:43:08.383Z,11.70
2022-12-25T17:45:37.085Z,12.67
2022-12-25T17:48:03.747Z,17.90
2022-12-25T17:50:31.840Z,11.48
2022-12-25T17:53:02.621Z,13.40
2022-12-25T17:55:34.148Z,11.40
2022-12-25T17:58:00.724Z,10.80
2022-12-25T18:00:27.400Z,14.43
2022-12-25T18:02:54.280Z,14.15
2022-12-25T18:05:21.002Z,14.48
2022-12-25T18:07:47.507Z,14.80
2022-12-25T18:10:14.923Z,17.73
2022-12-25T18:12:43.892Z,15.13
2022-12-25T18:15:11.145Z,16.48
2022-12-25T18:17:38.647Z,16.05
2022-12-25T18:20:06.484Z,18.58
2022-12-25T18:22:34.226Z,19.50
2022-12-25T18:25:01.198Z,19.33
2022-12-25T18:27:27.786Z,20.30
2022-12-25T18:29:54.314Z,15.95
2022-12-25T18:32:26.292Z,29.30
2022-12-25T18:34:55.314Z,16.77
2022-12-25T18:37:21.900Z,15.98
2022-12-25T18:39:48.474Z,23.17
2022-12-25T18:42:33.504Z,18.55
2022-12-25T18:45:00.042Z,15.60
2022-12-25T18:47:26.627Z,17.77
2022-12-25T18:49:53.354Z,19.55
2022-12-25T18:52:49.405Z,16.15
2022-12-25T18:55:07.117Z,15.15
2022-12-25T18:57:33.726Z,31.73
2022-12-25T19:00:01.968Z,20.07
2022-12-25T19:02:29.237Z,21.10
2022-12-25T19:04:56.073Z,15.27
2022-12-25T19:07:23.141Z,37.40
2022-12-25T19:09:50.667Z,17.27
2022-12-25T19:12:17.853Z,13.90
2022-12-25T19:14:47.880Z,18.50
2022-12-25T19:17:15.280Z,20.17
2022-12-25T19:19:41.856Z,16.20
2022-12-25T19:22:08.686Z,14.60
2022-12-25T19:24:36.327Z,13.13
2022-12-25T19:27:03.557Z,15.00
2022-12-25T19:29:30.459Z,15.80
2022-12-25T19:31:57.224Z,14.90
2022-12-25T19:34:24.055Z,15.77
2022-12-25T19:36:50.805Z,14.87
2022-12-25T19:39:17.550Z,16.92
2022-12-25T19:41:44.578Z,20.98
2022-12-25T19:44:11.240Z,19.15
2022-12-25T19:46:40.768Z,14.85
2022-12-25T19:49:08.154Z,14.87
2022-12-25T19:51:38.166Z,14.75
2022-12-25T19:54:05.749Z,16.67
2022-12-25T19:56:33.573Z,13.18
2022-12-25T19:59:00.766Z,13.40
2022-12-25T20:01:30.284Z,15.80
2022-12-25T20:03:57.075Z,12.52
2022-12-25T20:06:28.079Z,13.18
2022-12-25T20:08:57.259Z,13.82
2022-12-25T20:11:26.559Z,12.40
2022-12-25T20:13:54.016Z,10.80
2022-12-25T20:16:20.819Z,11.98
2022-12-25T20:18:47.567Z,12.45
2022-12-25T20:21:16.739Z,10.45
2022-12-25T20:23:44.677Z,12.93
2022-12-25T20:26:12.847Z,10.93
2022-12-25T20:28:41.839Z,11.25
2022-12-25T20:31:18.556Z,10.23
2022-12-25T20:33:45.613Z,10.77
2022-12-25T20:36:13.143Z,10.27
2022-12-25T20:38:40.438Z,9.43
2022-12-25T20:41:27.562Z,10.90
2022-12-25T20:43:55.230Z,11.80
2022-12-25T20:46:22.441Z,10.02
2022-12-25T20:48:49.177Z,8.75
2022-12-25T20:51:18.407Z,10.73
2022-12-25T20:53:45.565Z,12.43
2022-12-25T20:56:14.000Z,11.18
2022-12-25T20:58:41.009Z,10.35
2022-12-25T21:01:11.520Z,9.38
2022-12-25T21:03:38.393Z,11.03
2022-12-25T21:06:05.180Z,10.73
2022-12-25T21:08:32.028Z,8.93
2022-12-25T21:11:01.047Z,12.73
2022-12-25T21:13:31.293Z,9.38
2022-12-25T21:15:58.236Z,10.07
2022-12-25T21:18:26.866Z,10.93
2022-12-25T21:20:56.998Z,25.33
2022-12-25T21:23:26.642Z,13.52
2022-12-25T21:25:54.659Z,13.27
2022-12-25T21:28:22.554Z,13.70
2022-12-25T21:30:50.400Z,14.00
2022-12-25T21:33:36.209Z,13.77
2022-12-25T21:36:08.877Z,13.68
2022-12-25T21:38:36.951Z,15.55
2022-12-25T21:41:08.276Z,17.60
2022-12-25T21:43:36.314Z,14.43
2022-12-25T21:46:05.573Z,17.65
2022-12-25T21:48:34.759Z,14.52
2022-12-25T21:51:23.479Z,15.15
2022-12-25T21:53:50.601Z,14.87
2022-12-25T21:56:17.895Z,19.05
2022-12-25T22:01:27.815Z,17.25
2022-12-25T22:03:55.808Z,17.02
2022-12-25T22:06:40.886Z,18.10
2022-12-25T22:09:08.979Z,19.38
2022-12-25T22:11:56.478Z,17.98
2022-12-25T22:14:52.873Z,16.65
2022-12-25T22:17:44.818Z,19.10
2022-12-25T22:20:20.678Z,15.70
2022-12-25T22:22:47.607Z,16.25
2022-12-25T22:25:15.626Z,17.55
2022-12-25T22:27:44.940Z,17.48
2022-12-25T22:30:14.735Z,14.65
2022-12-25T22:32:42.355Z,14.97
2022-12-25T22:35:10.133Z,18.08
2022-12-25T22:37:36.741Z,14.82
2022-12-25T22:40:04.493Z,11.65
2022-12-25T22:42:31.466Z,14.00
2022-12-25T22:44:59.812Z,13.40
2022-12-25T22:47:26.508Z,12.10
2022-12-25T22:49:53.119Z,12.77
2022-12-25T22:52:19.908Z,14.02
2022-12-25T22:54:47.607Z,12.98
2022-12-25T22:57:14.748Z,11.17
2022-12-25T22:59:41.530Z,12.32
2022-12-25T23:02:08.591Z,11.70
2022-12-25T23:04:35.559Z,12.82
2022-12-25T23:07:02.119Z,11.95
2022-12-25T23:09:28.915Z,10.90
2022-12-25T23:11:57.399Z,9.80
2022-12-25T23:14:42.981Z,9.93
2022-12-25T23:17:31.625Z,10.98
2022-12-25T23:20:18.374Z,9.60
2022-12-25T23:23:04.805Z,9.40
2022-12-25T23:25:50.175Z,11.68
2022-12-25T23:28:36.725Z,11.07
2022-12-25T23:31:03.556Z,10.65
2022-12-25T23:33:30.417Z,11.80
2022-12-25T23:35:57.008Z,11.03
2022-12-25T23:38:23.524Z,10.82
2022-12-25T23:40:50.065Z,9.85
2022-12-25T23:43:16.599Z,12.75
2022-12-25T23:45:43.157Z,13.60
2022-12-25T23:48:09.697Z,11.13
2022-12-25T23:50:36.224Z,12.13
2022-12-25T23:53:02.780Z,11.40
2022-12-25T23:55:29.333Z,14.18
2022-12-25T23:57:55.861Z,12.18
